sensor_id;sensor_type;location;lat;lon;timestamp;P1;durP1;ratioP1;P2;durP2;ratioP2
41512;SDS011;27244;59.940;30.280;2023-04-10T00:02:14;2.97;;;1.70;;
41512;SDS011;27244;59.940;30.280;2023-04-10T00:04:42;2.30;;;1.70;;
41512;SDS011;27244;59.940;30.280;2023-04-10T00:07:09;1.77;;;1.25;;
41512;SDS011;27244;59.940;30.280;2023-04-10T00:09:36;4.65;;;1.70;;
41512;SDS011;27244;59.940;30.280;2023-04-10T00:12:04;2.42;;;1.40;;
41512;SDS011;27244;59.940;30.280;2023-04-10T00:14:31;3.28;;;1.55;;
41512;SDS011;27244;59.940;30.280;2023-04-10T00:16:58;3.13;;;1.67;;
41512;SDS011;27244;59.940;30.280;2023-04-10T00:19:25;3.13;;;1.83;;
41512;SDS011;27244;59.940;30.280;2023-04-10T00:21:54;3.65;;;1.45;;
41512;SDS011;27244;59.940;30.280;2023-04-10T00:24:21;3.95;;;1.73;;
41512;SDS011;27244;59.940;30.280;2023-04-10T00:26:48;3.17;;;1.75;;
41512;SDS011;27244;59.940;30.280;2023-04-10T00:29:15;3.10;;;1.70;;
41512;SDS011;27244;59.940;30.280;2023-04-10T00:31:42;5.13;;;1.67;;
41512;SDS011;27244;59.940;30.280;2023-04-10T00:34:09;2.28;;;1.50;;
41512;SDS011;27244;59.940;30.280;2023-04-10T00:36:36;3.13;;;1.50;;
41512;SDS011;27244;59.940;30.280;2023-04-10T00:39:04;2.28;;;1.40;;
41512;SDS011;27244;59.940;30.280;2023-04-10T00:41:31;4.70;;;1.63;;
41512;SDS011;27244;59.940;30.280;2023-04-10T00:43:59;3.67;;;1.83;;
41512;SDS011;27244;59.940;30.280;2023-04-10T00:46:26;3.63;;;1.40;;
41512;SDS011;27244;59.940;30.280;2023-04-10T00:48:53;3.67;;;1.95;;
41512;SDS011;27244;59.940;30.280;2023-04-10T00:51:21;3.00;;;1.60;;
41512;SDS011;27244;59.940;30.280;2023-04-10T00:53:49;3.15;;;1.80;;
41512;SDS011;27244;59.940;30.280;2023-04-10T00:56:18;2.55;;;1.98;;
41512;SDS011;27244;59.940;30.280;2023-04-10T00:58:46;3.95;;;1.85;;
41512;SDS011;27244;59.940;30.280;2023-04-10T01:01:13;3.33;;;1.70;;
41512;SDS011;27244;59.940;30.280;2023-04-10T01:03:41;2.53;;;1.58;;
41512;SDS011;27244;59.940;30.280;2023-04-10T01:06:11;2.85;;;1.65;;
41512;SDS011;27244;59.940;30.280;2023-04-10T01:08:46;3.88;;;1.90;;
41512;SDS011;27244;59.940;30.280;2023-04-10T01:11:26;2.88;;;1.73;;
41512;SDS011;27244;59.940;30.280;2023-04-10T01:14:06;3.78;;;1.55;;
41512;SDS011;27244;59.940;30.280;2023-04-10T01:16:42;3.13;;;1.90;;
41512;SDS011;27244;59.940;30.280;2023-04-10T01:19:21;3.13;;;1.67;;
41512;SDS011;27244;59.940;30.280;2023-04-10T01:21:58;2.88;;;2.08;;
41512;SDS011;27244;59.940;30.280;2023-04-10T01:24:36;2.90;;;2.13;;
41512;SDS011;27244;59.940;30.280;2023-04-10T01:27:28;2.95;;;1.60;;
41512;SDS011;27244;59.940;30.280;2023-04-10T01:30:07;2.65;;;1.80;;
41512;SDS011;27244;59.940;30.280;2023-04-10T01:32:40;2.58;;;1.70;;
41512;SDS011;27244;59.940;30.280;2023-04-10T01:35:09;3.08;;;2.03;;
41512;SDS011;27244;59.940;30.280;2023-04-10T01:37:40;5.10;;;1.73;;
41512;SDS011;27244;59.940;30.280;2023-04-10T01:40:10;4.13;;;1.75;;
41512;SDS011;27244;59.940;30.280;2023-04-10T01:42:42;2.92;;;1.70;;
41512;SDS011;27244;59.940;30.280;2023-04-10T01:45:16;3.45;;;1.90;;
41512;SDS011;27244;59.940;30.280;2023-04-10T01:47:47;3.17;;;1.63;;
41512;SDS011;27244;59.940;30.280;2023-04-10T01:50:15;2.45;;;1.67;;
41512;SDS011;27244;59.940;30.280;2023-04-10T01:52:44;3.03;;;1.85;;
41512;SDS011;27244;59.940;30.280;2023-04-10T01:55:18;3.53;;;1.95;;
41512;SDS011;27244;59.940;30.280;2023-04-10T01:57:53;2.20;;;1.83;;
41512;SDS011;27244;59.940;30.280;2023-04-10T02:00:23;3.80;;;1.88;;
41512;SDS011;27244;59.940;30.280;2023-04-10T02:02:50;6.10;;;1.98;;
41512;SDS011;27244;59.940;30.280;2023-04-10T02:05:17;3.42;;;1.90;;
41512;SDS011;27244;59.940;30.280;2023-04-10T02:07:48;3.35;;;1.50;;
41512;SDS011;27244;59.940;30.280;2023-04-10T02:10:23;4.68;;;1.90;;
41512;SDS011;27244;59.940;30.280;2023-04-10T02:12:57;3.63;;;2.30;;
41512;SDS011;27244;59.940;30.280;2023-04-10T02:15:28;3.60;;;1.70;;
41512;SDS011;27244;59.940;30.280;2023-04-10T02:17:57;4.47;;;1.92;;
41512;SDS011;27244;59.940;30.280;2023-04-10T02:20:26;4.22;;;1.90;;
41512;SDS011;27244;59.940;30.280;2023-04-10T02:22:53;3.78;;;1.83;;
41512;SDS011;27244;59.940;30.280;2023-04-10T02:25:20;2.85;;;1.80;;
41512;SDS011;27244;59.940;30.280;2023-04-10T02:27:47;3.78;;;1.63;;
41512;SDS011;27244;59.940;30.280;2023-04-10T02:30:14;4.55;;;1.77;;
41512;SDS011;27244;59.940;30.280;2023-04-10T02:32:44;3.88;;;2.10;;
41512;SDS011;27244;59.940;30.280;2023-04-10T02:35:10;3.63;;;2.15;;
41512;SDS011;27244;59.940;30.280;2023-04-10T02:37:37;2.92;;;1.73;;
41512;SDS011;27244;59.940;30.280;2023-04-10T02:40:06;3.90;;;1.85;;
41512;SDS011;27244;59.940;30.280;2023-04-10T02:42:44;3.60;;;1.58;;
41512;SDS011;27244;59.940;30.280;2023-04-10T02:45:11;4.05;;;2.10;;
41512;SDS011;27244;59.940;30.280;2023-04-10T02:47:41;2.75;;;1.83;;
41512;SDS011;27244;59.940;30.280;2023-04-10T02:50:10;3.08;;;1.60;;
41512;SDS011;27244;59.940;30.280;2023-04-10T02:52:40;6.53;;;2.10;;
41512;SDS011;27244;59.940;30.280;2023-04-10T02:55:07;5.32;;;1.80;;
41512;SDS011;27244;59.940;30.280;2023-04-10T02:57:36;6.25;;;1.90;;
41512;SDS011;27244;59.940;30.280;2023-04-10T03:00:04;3.90;;;1.88;;
41512;SDS011;27244;59.940;30.280;2023-04-10T03:02:51;6.60;;;1.90;;
41512;SDS011;27244;59.940;30.280;2023-04-10T03:05:20;3.80;;;1.90;;
41512;SDS011;27244;59.940;30.280;2023-04-10T03:07:47;5.25;;;1.80;;
41512;SDS011;27244;59.940;30.280;2023-04-10T03:10:15;3.88;;;1.80;;
41512;SDS011;27244;59.940;30.280;2023-04-10T03:12:42;3.22;;;2.08;;
41512;SDS011;27244;59.940;30.280;2023-04-10T03:15:09;4.05;;;2.13;;
41512;SDS011;27244;59.940;30.280;2023-04-10T03:17:37;5.20;;;1.50;;
41512;SDS011;27244;59.940;30.280;2023-04-10T03:20:06;3.95;;;1.63;;
41512;SDS011;27244;59.940;30.280;2023-04-10T03:22:35;3.03;;;1.50;;
41512;SDS011;27244;59.940;30.280;2023-04-10T03:25:02;3.88;;;1.85;;
41512;SDS011;27244;59.940;30.280;2023-04-10T03:27:30;3.70;;;1.80;;
41512;SDS011;27244;59.940;30.280;2023-04-10T03:29:59;5.97;;;1.77;;
41512;SDS011;27244;59.940;30.280;2023-04-10T03:32:26;4.25;;;1.88;;
41512;SDS011;27244;59.940;30.280;2023-04-10T03:34:56;5.50;;;1.98;;
41512;SDS011;27244;59.940;30.280;2023-04-10T03:37:23;3.10;;;1.80;;
41512;SDS011;27244;59.940;30.280;2023-04-10T03:39:53;4.22;;;1.95;;
41512;SDS011;27244;59.940;30.280;2023-04-10T03:42:20;6.40;;;1.85;;
41512;SDS011;27244;59.940;30.280;2023-04-10T03:44:47;4.70;;;2.00;;
41512;SDS011;27244;59.940;30.280;2023-04-10T03:47:14;3.33;;;1.73;;
41512;SDS011;27244;59.940;30.280;2023-04-10T03:49:47;7.18;;;2.00;;
41512;SDS011;27244;59.940;30.280;2023-04-10T03:52:14;5.57;;;1.85;;
41512;SDS011;27244;59.940;30.280;2023-04-10T03:54:41;3.63;;;2.40;;
41512;SDS011;27244;59.940;30.280;2023-04-10T03:57:18;3.42;;;1.70;;
41512;SDS011;27244;59.940;30.280;2023-04-10T03:59:46;6.20;;;2.08;;
41512;SDS011;27244;59.940;30.280;2023-04-10T04:02:14;6.55;;;2.30;;
41512;SDS011;27244;59.940;30.280;2023-04-10T04:04:42;4.55;;;1.88;;
41512;SDS011;27244;59.940;30.280;2023-04-10T04:07:19;4.72;;;1.90;;
41512;SDS011;27244;59.940;30.280;2023-04-10T04:09:56;4.95;;;2.10;;
41512;SDS011;27244;59.940;30.280;2023-04-10T04:12:51;5.63;;;1.77;;
41512;SDS011;27244;59.940;30.280;2023-04-10T04:15:43;2.55;;;1.60;;
41512;SDS011;27244;59.940;30.280;2023-04-10T04:18:22;4.57;;;1.80;;
41512;SDS011;27244;59.940;30.280;2023-04-10T04:21:09;3.75;;;1.52;;
41512;SDS011;27244;59.940;30.280;2023-04-10T04:23:54;3.30;;;1.55;;
41512;SDS011;27244;59.940;30.280;2023-04-10T04:26:30;5.32;;;1.60;;
41512;SDS011;27244;59.940;30.280;2023-04-10T04:29:21;4.20;;;1.70;;
41512;SDS011;27244;59.940;30.280;2023-04-10T04:32:09;2.50;;;1.40;;
41512;SDS011;27244;59.940;30.280;2023-04-10T04:34:55;3.83;;;1.63;;
41512;SDS011;27244;59.940;30.280;2023-04-10T04:37:40;3.85;;;1.52;;
41512;SDS011;27244;59.940;30.280;2023-04-10T04:40:26;3.55;;;1.50;;
41512;SDS011;27244;59.940;30.280;2023-04-10T04:43:02;5.18;;;1.67;;
41512;SDS011;27244;59.940;30.280;2023-04-10T04:45:54;2.55;;;1.23;;
41512;SDS011;27244;59.940;30.280;2023-04-10T04:48:57;4.32;;;1.40;;
41512;SDS011;27244;59.940;30.280;2023-04-10T04:51:46;2.10;;;1.20;;
41512;SDS011;27244;59.940;30.280;2023-04-10T04:54:47;3.00;;;1.25;;
41512;SDS011;27244;59.940;30.280;2023-04-10T04:57:22;3.25;;;1.45;;
41512;SDS011;27244;59.940;30.280;2023-04-10T05:00:11;2.05;;;1.35;;
41512;SDS011;27244;59.940;30.280;2023-04-10T05:05:35;1.70;;;1.10;;
41512;SDS011;27244;59.940;30.280;2023-04-10T05:08:27;2.40;;;1.10;;
41512;SDS011;27244;59.940;30.280;2023-04-10T05:11:16;3.33;;;1.50;;
41512;SDS011;27244;59.940;30.280;2023-04-10T05:14:04;7.57;;;1.45;;
41512;SDS011;27244;59.940;30.280;2023-04-10T05:17:04;1.95;;;0.95;;
41512;SDS011;27244;59.940;30.280;2023-04-10T05:19:44;2.15;;;1.50;;
41512;SDS011;27244;59.940;30.280;2023-04-10T05:22:37;2.75;;;1.60;;
41512;SDS011;27244;59.940;30.280;2023-04-10T05:25:15;7.28;;;1.30;;
41512;SDS011;27244;59.940;30.280;2023-04-10T05:28:17;5.53;;;1.45;;
41512;SDS011;27244;59.940;30.280;2023-04-10T05:31:01;3.00;;;1.08;;
41512;SDS011;27244;59.940;30.280;2023-04-10T05:33:52;4.85;;;1.17;;
41512;SDS011;27244;59.940;30.280;2023-04-10T05:36:36;1.48;;;0.95;;
41512;SDS011;27244;59.940;30.280;2023-04-10T05:39:24;3.58;;;1.25;;
41512;SDS011;27244;59.940;30.280;2023-04-10T05:42:05;7.28;;;1.20;;
41512;SDS011;27244;59.940;30.280;2023-04-10T05:45:05;2.65;;;1.27;;
41512;SDS011;27244;59.940;30.280;2023-04-10T05:47:53;1.95;;;1.20;;
41512;SDS011;27244;59.940;30.280;2023-04-10T05:50:33;3.08;;;1.58;;
41512;SDS011;27244;59.940;30.280;2023-04-10T05:53:28;3.17;;;1.25;;
41512;SDS011;27244;59.940;30.280;2023-04-10T05:56:22;3.60;;;1.02;;
41512;SDS011;27244;59.940;30.280;2023-04-10T05:59:22;1.65;;;1.20;;
41512;SDS011;27244;59.940;30.280;2023-04-10T06:02:00;2.45;;;1.10;;
41512;SDS011;27244;59.940;30.280;2023-04-10T06:04:27;3.30;;;1.10;;
41512;SDS011;27244;59.940;30.280;2023-04-10T06:06:56;2.25;;;1.17;;
41512;SDS011;27244;59.940;30.280;2023-04-10T06:09:25;3.42;;;1.15;;
41512;SDS011;27244;59.940;30.280;2023-04-10T06:11:52;2.70;;;1.30;;
41512;SDS011;27244;59.940;30.280;2023-04-10T06:14:21;1.95;;;1.15;;
41512;SDS011;27244;59.940;30.280;2023-04-10T06:16:48;2.42;;;1.20;;
41512;SDS011;27244;59.940;30.280;2023-04-10T06:19:16;3.22;;;1.38;;
41512;SDS011;27244;59.940;30.280;2023-04-10T06:21:42;2.13;;;1.23;;
41512;SDS011;27244;59.940;30.280;2023-04-10T06:24:11;3.17;;;1.15;;
41512;SDS011;27244;59.940;30.280;2023-04-10T06:26:39;3.05;;;1.10;;
41512;SDS011;27244;59.940;30.280;2023-04-10T06:29:07;2.63;;;1.77;;
41512;SDS011;27244;59.940;30.280;2023-04-10T06:31:35;2.63;;;1.10;;
41512;SDS011;27244;59.940;30.280;2023-04-10T06:34:02;2.67;;;1.10;;
41512;SDS011;27244;59.940;30.280;2023-04-10T06:36:30;1.60;;;1.10;;
41512;SDS011;27244;59.940;30.280;2023-04-10T06:39:01;2.88;;;0.95;;
41512;SDS011;27244;59.940;30.280;2023-04-10T06:41:28;1.80;;;1.20;;
41512;SDS011;27244;59.940;30.280;2023-04-10T06:44:06;2.30;;;1.50;;
41512;SDS011;27244;59.940;30.280;2023-04-10T06:46:33;3.58;;;1.10;;
41512;SDS011;27244;59.940;30.280;2023-04-10T06:49:00;2.13;;;1.40;;
41512;SDS011;27244;59.940;30.280;2023-04-10T06:51:27;2.17;;;1.25;;
41512;SDS011;27244;59.940;30.280;2023-04-10T06:53:55;5.53;;;1.40;;
41512;SDS011;27244;59.940;30.280;2023-04-10T06:56:22;2.55;;;1.73;;
41512;SDS011;27244;59.940;30.280;2023-04-10T06:58:49;1.85;;;1.20;;
41512;SDS011;27244;59.940;30.280;2023-04-10T07:01:17;3.63;;;1.38;;
41512;SDS011;27244;59.940;30.280;2023-04-10T07:03:44;2.22;;;1.30;;
41512;SDS011;27244;59.940;30.280;2023-04-10T07:06:12;2.83;;;1.30;;
41512;SDS011;27244;59.940;30.280;2023-04-10T07:08:39;1.90;;;1.17;;
41512;SDS011;27244;59.940;30.280;2023-04-10T07:11:06;2.25;;;1.30;;
41512;SDS011;27244;59.940;30.280;2023-04-10T07:13:33;3.25;;;1.88;;
41512;SDS011;27244;59.940;30.280;2023-04-10T07:16:03;6.07;;;1.40;;
41512;SDS011;27244;59.940;30.280;2023-04-10T07:18:32;6.38;;;1.35;;
41512;SDS011;27244;59.940;30.280;2023-04-10T07:20:59;2.05;;;1.30;;
41512;SDS011;27244;59.940;30.280;2023-04-10T07:23:26;3.60;;;1.30;;
41512;SDS011;27244;59.940;30.280;2023-04-10T07:25:53;3.33;;;1.30;;
41512;SDS011;27244;59.940;30.280;2023-04-10T07:28:20;3.40;;;1.30;;
41512;SDS011;27244;59.940;30.280;2023-04-10T07:30:47;3.03;;;1.23;;
41512;SDS011;27244;59.940;30.280;2023-04-10T07:33:14;2.40;;;1.40;;
41512;SDS011;27244;59.940;30.280;2023-04-10T07:35:42;3.78;;;1.17;;
41512;SDS011;27244;59.940;30.280;2023-04-10T07:38:13;4.43;;;1.40;;
41512;SDS011;27244;59.940;30.280;2023-04-10T07:40:39;1.85;;;1.30;;
41512;SDS011;27244;59.940;30.280;2023-04-10T07:43:06;2.40;;;1.30;;
41512;SDS011;27244;59.940;30.280;2023-04-10T07:45:34;2.45;;;1.45;;
41512;SDS011;27244;59.940;30.280;2023-04-10T07:48:01;2.05;;;1.17;;
41512;SDS011;27244;59.940;30.280;2023-04-10T07:50:28;2.58;;;1.05;;
41512;SDS011;27244;59.940;30.280;2023-04-10T07:52:57;2.05;;;1.10;;
41512;SDS011;27244;59.940;30.280;2023-04-10T07:55:27;2.13;;;1.30;;
41512;SDS011;27244;59.940;30.280;2023-04-10T07:57:55;2.83;;;1.30;;
41512;SDS011;27244;59.940;30.280;2023-04-10T08:00:22;1.52;;;1.20;;
41512;SDS011;27244;59.940;30.280;2023-04-10T08:02:50;1.70;;;1.05;;
41512;SDS011;27244;59.940;30.280;2023-04-10T08:05:17;1.92;;;1.23;;
41512;SDS011;27244;59.940;30.280;2023-04-10T08:07:44;2.05;;;1.20;;
41512;SDS011;27244;59.940;30.280;2023-04-10T08:10:12;1.85;;;1.38;;
41512;SDS011;27244;59.940;30.280;2023-04-10T08:12:39;1.95;;;1.02;;
41512;SDS011;27244;59.940;30.280;2023-04-10T08:15:06;3.25;;;1.23;;
41512;SDS011;27244;59.940;30.280;2023-04-10T08:17:34;2.08;;;1.30;;
41512;SDS011;27244;59.940;30.280;2023-04-10T08:20:01;1.52;;;1.15;;
41512;SDS011;27244;59.940;30.280;2023-04-10T08:22:30;2.38;;;1.30;;
41512;SDS011;27244;59.940;30.280;2023-04-10T08:24:56;2.15;;;1.17;;
41512;SDS011;27244;59.940;30.280;2023-04-10T08:27:25;3.28;;;1.52;;
41512;SDS011;27244;59.940;30.280;2023-04-10T08:29:52;2.50;;;1.50;;
41512;SDS011;27244;59.940;30.280;2023-04-10T08:32:19;2.22;;;1.23;;
41512;SDS011;27244;59.940;30.280;2023-04-10T08:34:47;2.97;;;1.17;;
41512;SDS011;27244;59.940;30.280;2023-04-10T08:37:15;2.38;;;1.60;;
41512;SDS011;27244;59.940;30.280;2023-04-10T08:39:44;2.72;;;1.15;;
41512;SDS011;27244;59.940;30.280;2023-04-10T08:42:10;1.98;;;1.45;;
41512;SDS011;27244;59.940;30.280;2023-04-10T08:44:39;1.77;;;1.23;;
41512;SDS011;27244;59.940;30.280;2023-04-10T08:47:06;9.80;;;1.60;;
41512;SDS011;27244;59.940;30.280;2023-04-10T08:49:36;2.28;;;1.30;;
41512;SDS011;27244;59.940;30.280;2023-04-10T08:52:08;2.50;;;1.40;;
41512;SDS011;27244;59.940;30.280;2023-04-10T08:54:42;1.92;;;1.30;;
41512;SDS011;27244;59.940;30.280;2023-04-10T08:57:14;2.65;;;1.27;;
41512;SDS011;27244;59.940;30.280;2023-04-10T09:02:13;3.38;;;1.58;;
41512;SDS011;27244;59.940;30.280;2023-04-10T09:04:40;4.30;;;1.88;;
41512;SDS011;27244;59.940;30.280;2023-04-10T09:07:12;6.45;;;2.03;;
41512;SDS011;27244;59.940;30.280;2023-04-10T09:09:40;4.45;;;1.90;;
41512;SDS011;27244;59.940;30.280;2023-04-10T09:12:07;6.15;;;2.10;;
41512;SDS011;27244;59.940;30.280;2023-04-10T09:14:34;4.25;;;2.22;;
41512;SDS011;27244;59.940;30.280;2023-04-10T09:17:13;5.13;;;2.17;;
41512;SDS011;27244;59.940;30.280;2023-04-10T09:19:42;5.35;;;2.38;;
41512;SDS011;27244;59.940;30.280;2023-04-10T09:22:10;6.20;;;2.72;;
41512;SDS011;27244;59.940;30.280;2023-04-10T09:24:39;6.32;;;2.80;;
41512;SDS011;27244;59.940;30.280;2023-04-10T09:27:06;6.60;;;2.60;;
41512;SDS011;27244;59.940;30.280;2023-04-10T09:29:38;4.75;;;2.70;;
41512;SDS011;27244;59.940;30.280;2023-04-10T09:32:07;4.70;;;2.40;;
41512;SDS011;27244;59.940;30.280;2023-04-10T09:34:38;6.22;;;2.67;;
41512;SDS011;27244;59.940;30.280;2023-04-10T09:37:18;5.53;;;2.47;;
41512;SDS011;27244;59.940;30.280;2023-04-10T09:39:47;5.88;;;2.70;;
41512;SDS011;27244;59.940;30.280;2023-04-10T09:42:14;7.07;;;2.85;;
41512;SDS011;27244;59.940;30.280;2023-04-10T09:44:41;6.45;;;3.00;;
41512;SDS011;27244;59.940;30.280;2023-04-10T09:47:14;6.63;;;3.65;;
41512;SDS011;27244;59.940;30.280;2023-04-10T09:49:47;5.43;;;2.72;;
41512;SDS011;27244;59.940;30.280;2023-04-10T09:52:17;6.97;;;2.92;;
41512;SDS011;27244;59.940;30.280;2023-04-10T09:54:45;8.68;;;3.20;;
41512;SDS011;27244;59.940;30.280;2023-04-10T09:57:12;9.93;;;3.42;;
41512;SDS011;27244;59.940;30.280;2023-04-10T09:59:42;6.35;;;3.28;;
41512;SDS011;27244;59.940;30.280;2023-04-10T10:02:13;8.82;;;3.30;;
41512;SDS011;27244;59.940;30.280;2023-04-10T10:04:42;8.00;;;3.38;;
41512;SDS011;27244;59.940;30.280;2023-04-10T10:07:12;8.20;;;3.10;;
41512;SDS011;27244;59.940;30.280;2023-04-10T10:09:40;8.93;;;3.88;;
41512;SDS011;27244;59.940;30.280;2023-04-10T10:12:09;9.07;;;3.67;;
41512;SDS011;27244;59.940;30.280;2023-04-10T10:14:40;9.40;;;3.95;;
41512;SDS011;27244;59.940;30.280;2023-04-10T10:17:11;8.30;;;3.80;;
41512;SDS011;27244;59.940;30.280;2023-04-10T10:19:41;10.57;;;3.58;;
41512;SDS011;27244;59.940;30.280;2023-04-10T10:22:15;13.30;;;4.45;;
41512;SDS011;27244;59.940;30.280;2023-04-10T10:24:44;8.57;;;3.47;;
41512;SDS011;27244;59.940;30.280;2023-04-10T10:27:12;8.10;;;3.33;;
41512;SDS011;27244;59.940;30.280;2023-04-10T10:29:42;8.82;;;3.40;;
41512;SDS011;27244;59.940;30.280;2023-04-10T10:32:15;10.43;;;3.60;;
41512;SDS011;27244;59.940;30.280;2023-04-10T10:34:44;9.45;;;3.92;;
41512;SDS011;27244;59.940;30.280;2023-04-10T10:37:11;10.68;;;3.47;;
41512;SDS011;27244;59.940;30.280;2023-04-10T10:39:44;8.95;;;3.38;;
41512;SDS011;27244;59.940;30.280;2023-04-10T10:42:21;7.07;;;3.97;;
41512;SDS011;27244;59.940;30.280;2023-04-10T10:44:55;9.68;;;3.70;;
41512;SDS011;27244;59.940;30.280;2023-04-10T10:47:27;7.82;;;2.85;;
41512;SDS011;27244;59.940;30.280;2023-04-10T10:49:56;8.13;;;3.60;;
41512;SDS011;27244;59.940;30.280;2023-04-10T10:52:40;10.32;;;3.90;;
41512;SDS011;27244;59.940;30.280;2023-04-10T10:58:03;12.02;;;3.35;;
41512;SDS011;27244;59.940;30.280;2023-04-10T11:03:44;7.18;;;3.05;;
41512;SDS011;27244;59.940;30.280;2023-04-10T11:06:13;9.05;;;3.05;;
41512;SDS011;27244;59.940;30.280;2023-04-10T11:08:42;12.18;;;3.70;;
41512;SDS011;27244;59.940;30.280;2023-04-10T11:11:12;7.70;;;3.47;;
41512;SDS011;27244;59.940;30.280;2023-04-10T11:16:42;7.85;;;3.17;;
41512;SDS011;27244;59.940;30.280;2023-04-10T11:19:11;8.05;;;3.50;;
41512;SDS011;27244;59.940;30.280;2023-04-10T11:27:41;6.38;;;3.72;;
41512;SDS011;27244;59.940;30.280;2023-04-10T11:30:27;8.88;;;3.35;;
41512;SDS011;27244;59.940;30.280;2023-04-10T11:32:58;10.80;;;2.75;;
41512;SDS011;27244;59.940;30.280;2023-04-10T11:35:26;6.32;;;2.83;;
41512;SDS011;27244;59.940;30.280;2023-04-10T11:40:52;9.55;;;3.10;;
41512;SDS011;27244;59.940;30.280;2023-04-10T11:43:32;6.72;;;2.75;;
41512;SDS011;27244;59.940;30.280;2023-04-10T11:46:01;7.63;;;2.78;;
41512;SDS011;27244;59.940;30.280;2023-04-10T11:48:31;7.68;;;2.60;;
41512;SDS011;27244;59.940;30.280;2023-04-10T11:51:05;6.30;;;2.70;;
41512;SDS011;27244;59.940;30.280;2023-04-10T11:53:33;7.32;;;2.65;;
41512;SDS011;27244;59.940;30.280;2023-04-10T11:56:00;5.30;;;2.70;;
41512;SDS011;27244;59.940;30.280;2023-04-10T11:58:28;6.47;;;2.70;;
41512;SDS011;27244;59.940;30.280;2023-04-10T12:01:01;6.82;;;2.60;;
41512;SDS011;27244;59.940;30.280;2023-04-10T12:03:33;4.47;;;2.50;;
41512;SDS011;27244;59.940;30.280;2023-04-10T12:06:01;5.45;;;2.63;;
41512;SDS011;27244;59.940;30.280;2023-04-10T12:08:29;6.47;;;2.67;;
41512;SDS011;27244;59.940;30.280;2023-04-10T12:10:57;5.68;;;2.60;;
41512;SDS011;27244;59.940;30.280;2023-04-10T12:13:25;5.50;;;2.50;;
41512;SDS011;27244;59.940;30.280;2023-04-10T12:15:52;5.88;;;2.38;;
41512;SDS011;27244;59.940;30.280;2023-04-10T12:18:21;5.00;;;2.05;;
41512;SDS011;27244;59.940;30.280;2023-04-10T12:20:48;5.03;;;2.53;;
41512;SDS011;27244;59.940;30.280;2023-04-10T12:23:20;6.32;;;2.63;;
41512;SDS011;27244;59.940;30.280;2023-04-10T12:25:47;6.15;;;2.70;;
41512;SDS011;27244;59.940;30.280;2023-04-10T12:28:16;5.32;;;2.10;;
41512;SDS011;27244;59.940;30.280;2023-04-10T12:30:47;4.93;;;2.15;;
41512;SDS011;27244;59.940;30.280;2023-04-10T12:33:21;4.93;;;2.63;;
41512;SDS011;27244;59.940;30.280;2023-04-10T12:35:49;3.53;;;2.08;;
41512;SDS011;27244;59.940;30.280;2023-04-10T12:41:02;5.75;;;2.33;;
41512;SDS011;27244;59.940;30.280;2023-04-10T12:43:31;6.40;;;2.45;;
41512;SDS011;27244;59.940;30.280;2023-04-10T12:46:00;4.43;;;2.10;;
41512;SDS011;27244;59.940;30.280;2023-04-10T12:48:30;4.07;;;2.25;;
41512;SDS011;27244;59.940;30.280;2023-04-10T12:50:57;4.53;;;2.30;;
41512;SDS011;27244;59.940;30.280;2023-04-10T12:53:24;4.60;;;2.83;;
41512;SDS011;27244;59.940;30.280;2023-04-10T12:55:55;4.72;;;2.08;;
41512;SDS011;27244;59.940;30.280;2023-04-10T12:58:23;3.85;;;1.88;;
41512;SDS011;27244;59.940;30.280;2023-04-10T13:00:52;3.88;;;2.22;;
41512;SDS011;27244;59.940;30.280;2023-04-10T13:03:20;3.80;;;2.00;;
41512;SDS011;27244;59.940;30.280;2023-04-10T13:05:49;4.22;;;2.20;;
41512;SDS011;27244;59.940;30.280;2023-04-10T13:08:17;4.80;;;2.00;;
41512;SDS011;27244;59.940;30.280;2023-04-10T13:10:45;4.22;;;2.00;;
41512;SDS011;27244;59.940;30.280;2023-04-10T13:13:12;4.30;;;2.03;;
41512;SDS011;27244;59.940;30.280;2023-04-10T13:15:39;3.78;;;2.10;;
41512;SDS011;27244;59.940;30.280;2023-04-10T13:18:07;4.18;;;2.33;;
41512;SDS011;27244;59.940;30.280;2023-04-10T13:20:35;3.22;;;1.98;;
41512;SDS011;27244;59.940;30.280;2023-04-10T13:23:04;4.93;;;2.72;;
41512;SDS011;27244;59.940;30.280;2023-04-10T13:25:32;3.35;;;1.80;;
41512;SDS011;27244;59.940;30.280;2023-04-10T13:30:34;2.95;;;1.70;;
41512;SDS011;27244;59.940;30.280;2023-04-10T13:33:01;4.05;;;2.05;;
41512;SDS011;27244;59.940;30.280;2023-04-10T13:35:28;3.65;;;2.00;;
41512;SDS011;27244;59.940;30.280;2023-04-10T13:37:55;3.45;;;1.98;;
41512;SDS011;27244;59.940;30.280;2023-04-10T13:40:24;2.47;;;1.60;;
41512;SDS011;27244;59.940;30.280;2023-04-10T13:42:51;3.53;;;1.95;;
41512;SDS011;27244;59.940;30.280;2023-04-10T13:45:18;3.88;;;1.77;;
41512;SDS011;27244;59.940;30.280;2023-04-10T13:47:45;2.60;;;1.63;;
41512;SDS011;27244;59.940;30.280;2023-04-10T13:50:12;3.65;;;1.85;;
41512;SDS011;27244;59.940;30.280;2023-04-10T13:52:39;4.07;;;2.03;;
41512;SDS011;27244;59.940;30.280;2023-04-10T13:55:06;3.75;;;1.95;;
41512;SDS011;27244;59.940;30.280;2023-04-10T13:57:35;4.10;;;1.80;;
41512;SDS011;27244;59.940;30.280;2023-04-10T14:00:02;3.90;;;2.20;;
41512;SDS011;27244;59.940;30.280;2023-04-10T14:02:38;3.88;;;1.90;;
41512;SDS011;27244;59.940;30.280;2023-04-10T14:05:05;3.17;;;2.17;;
41512;SDS011;27244;59.940;30.280;2023-04-10T14:07:32;3.03;;;1.67;;
41512;SDS011;27244;59.940;30.280;2023-04-10T14:09:59;4.10;;;1.70;;
41512;SDS011;27244;59.940;30.280;2023-04-10T14:12:27;2.78;;;1.67;;
41512;SDS011;27244;59.940;30.280;2023-04-10T14:14:56;3.30;;;1.88;;
41512;SDS011;27244;59.940;30.280;2023-04-10T14:17:25;3.15;;;1.60;;
41512;SDS011;27244;59.940;30.280;2023-04-10T14:19:52;3.50;;;1.70;;
41512;SDS011;27244;59.940;30.280;2023-04-10T14:22:19;2.83;;;1.80;;
41512;SDS011;27244;59.940;30.280;2023-04-10T14:24:46;2.30;;;1.70;;
41512;SDS011;27244;59.940;30.280;2023-04-10T14:27:13;1.90;;;1.25;;
41512;SDS011;27244;59.940;30.280;2023-04-10T14:29:41;2.00;;;1.27;;
41512;SDS011;27244;59.940;30.280;2023-04-10T14:32:09;3.67;;;1.95;;
41512;SDS011;27244;59.940;30.280;2023-04-10T14:34:36;2.60;;;1.75;;
41512;SDS011;27244;59.940;30.280;2023-04-10T14:37:03;2.05;;;1.42;;
41512;SDS011;27244;59.940;30.280;2023-04-10T14:39:31;2.33;;;1.25;;
41512;SDS011;27244;59.940;30.280;2023-04-10T14:41:58;3.30;;;1.60;;
41512;SDS011;27244;59.940;30.280;2023-04-10T14:44:27;3.67;;;1.83;;
41512;SDS011;27244;59.940;30.280;2023-04-10T14:46:54;3.65;;;1.63;;
41512;SDS011;27244;59.940;30.280;2023-04-10T14:49:23;2.28;;;1.52;;
41512;SDS011;27244;59.940;30.280;2023-04-10T14:51:50;2.90;;;1.60;;
41512;SDS011;27244;59.940;30.280;2023-04-10T14:54:17;2.72;;;1.42;;
41512;SDS011;27244;59.940;30.280;2023-04-10T14:56:46;2.25;;;1.45;;
41512;SDS011;27244;59.940;30.280;2023-04-10T14:59:13;2.17;;;1.27;;
41512;SDS011;27244;59.940;30.280;2023-04-10T15:01:40;2.17;;;1.40;;
41512;SDS011;27244;59.940;30.280;2023-04-10T15:04:07;2.60;;;1.60;;
41512;SDS011;27244;59.940;30.280;2023-04-10T15:06:37;2.38;;;1.50;;
41512;SDS011;27244;59.940;30.280;2023-04-10T15:09:04;2.30;;;1.58;;
41512;SDS011;27244;59.940;30.280;2023-04-10T15:11:31;2.47;;;1.52;;
41512;SDS011;27244;59.940;30.280;2023-04-10T15:13:58;1.83;;;1.33;;
41512;SDS011;27244;59.940;30.280;2023-04-10T15:16:26;3.45;;;1.80;;
41512;SDS011;27244;59.940;30.280;2023-04-10T15:18:53;2.90;;;1.75;;
41512;SDS011;27244;59.940;30.280;2023-04-10T15:21:20;2.60;;;1.33;;
41512;SDS011;27244;59.940;30.280;2023-04-10T15:23:49;2.00;;;1.42;;
41512;SDS011;27244;59.940;30.280;2023-04-10T15:26:16;2.65;;;1.25;;